sensor_id;sensor_type;location;lat;lon;timestamp;pressure;altitude;pressure_sealevel;temperature;humidity
62057;BME280;48016;50.284;18.860;2023-10-09T00:00:15;99021.32;;;4.50;75.49
62057;BME280;48016;50.284;18.860;2023-10-09T00:03:22;99022.09;;;4.43;75.58
62057;BME280;48016;50.284;18.860;2023-10-09T00:05:50;99033.70;;;4.36;75.63
62057;BME280;48016;50.284;18.860;2023-10-09T00:08:19;99038.04;;;4.30;75.67
62057;BME280;48016;50.284;18.860;2023-10-09T00:10:53;99040.85;;;4.25;75.76
62057;BME280;48016;50.284;18.860;2023-10-09T00:13:26;99026.61;;;4.20;76.03
62057;BME280;48016;50.284;18.860;2023-10-09T00:16:05;99014.77;;;4.15;75.95
62057;BME280;48016;50.284;18.860;2023-10-09T00:18:40;99006.44;;;4.09;76.00
62057;BME280;48016;50.284;18.860;2023-10-09T00:21:16;98996.89;;;4.01;76.18
62057;BME280;48016;50.284;18.860;2023-10-09T00:23:46;98995.24;;;3.96;76.44
62057;BME280;48016;50.284;18.860;2023-10-09T00:26:21;98997.64;;;3.91;76.46
62057;BME280;48016;50.284;18.860;2023-10-09T00:28:49;98983.82;;;3.86;76.84
62057;BME280;48016;50.284;18.860;2023-10-09T00:31:17;98965.73;;;3.83;76.80
62057;BME280;48016;50.284;18.860;2023-10-09T00:33:56;98945.53;;;3.79;77.29
62057;BME280;48016;50.284;18.860;2023-10-09T00:36:22;98934.86;;;3.76;77.05
62057;BME280;48016;50.284;18.860;2023-10-09T00:38:54;98941.15;;;3.76;76.87
62057;BME280;48016;50.284;18.860;2023-10-09T00:41:21;98925.60;;;3.76;76.61
62057;BME280;48016;50.284;18.860;2023-10-09T00:43:51;98923.63;;;3.76;76.40
62057;BME280;48016;50.284;18.860;2023-10-09T00:46:20;98912.61;;;3.78;76.48
62057;BME280;48016;50.284;18.860;2023-10-09T00:48:48;98909.36;;;3.84;76.49
62057;BME280;48016;50.284;18.860;2023-10-09T00:51:17;98903.14;;;3.90;76.41
62057;BME280;48016;50.284;18.860;2023-10-09T00:54:04;98898.38;;;3.93;76.47
62057;BME280;48016;50.284;18.860;2023-10-09T00:56:34;98899.81;;;4.00;76.55
62057;BME280;48016;50.284;18.860;2023-10-09T00:59:05;98908.33;;;4.06;76.51
62057;BME280;48016;50.284;18.860;2023-10-09T01:01:36;98924.57;;;4.09;76.71
62057;BME280;48016;50.284;18.860;2023-10-09T01:04:06;98925.40;;;4.12;76.90
62057;BME280;48016;50.284;18.860;2023-10-09T01:06:44;98925.16;;;4.15;77.14
62057;BME280;48016;50.284;18.860;2023-10-09T01:09:11;98927.84;;;4.20;77.13
62057;BME280;48016;50.284;18.860;2023-10-09T01:11:44;98923.02;;;4.20;77.00
62057;BME280;48016;50.284;18.860;2023-10-09T01:14:31;98923.80;;;4.19;76.98
62057;BME280;48016;50.284;18.860;2023-10-09T01:17:03;98922.30;;;4.17;77.24
62057;BME280;48016;50.284;18.860;2023-10-09T01:19:37;98917.64;;;4.16;77.27
62057;BME280;48016;50.284;18.860;2023-10-09T01:22:03;98918.41;;;4.14;77.43
62057;BME280;48016;50.284;18.860;2023-10-09T01:24:39;98919.63;;;4.12;77.35
62057;BME280;48016;50.284;18.860;2023-10-09T01:27:06;98919.20;;;4.07;77.51
62057;BME280;48016;50.284;18.860;2023-10-09T01:29:41;98921.72;;;4.07;77.93
62057;BME280;48016;50.284;18.860;2023-10-09T01:32:12;98931.60;;;4.08;78.23
62057;BME280;48016;50.284;18.860;2023-10-09T01:34:48;98930.98;;;4.07;78.26
62057;BME280;48016;50.284;18.860;2023-10-09T01:37:16;98926.90;;;4.07;78.30
62057;BME280;48016;50.284;18.860;2023-10-09T01:39:49;98922.30;;;4.08;78.47
62057;BME280;48016;50.284;18.860;2023-10-09T01:42:20;98919.88;;;4.10;78.47
62057;BME280;48016;50.284;18.860;2023-10-09T01:44:56;98921.61;;;4.11;78.61
62057;BME280;48016;50.284;18.860;2023-10-09T01:47:29;98917.66;;;4.13;78.88
62057;BME280;48016;50.284;18.860;2023-10-09T01:49:57;98926.60;;;4.14;79.21
62057;BME280;48016;50.284;18.860;2023-10-09T01:52:24;98932.29;;;4.16;79.49
62057;BME280;48016;50.284;18.860;2023-10-09T01:54:51;98928.94;;;4.17;79.54
62057;BME280;48016;50.284;18.860;2023-10-09T01:57:27;98920.53;;;4.18;79.35
62057;BME280;48016;50.284;18.860;2023-10-09T01:59:56;98912.31;;;4.21;79.23
62057;BME280;48016;50.284;18.860;2023-10-09T02:02:24;98898.04;;;4.23;79.06
62057;BME280;48016;50.284;18.860;2023-10-09T02:04:53;98891.45;;;4.25;78.80
62057;BME280;48016;50.284;18.860;2023-10-09T02:07:20;98886.66;;;4.30;78.82
62057;BME280;48016;50.284;18.860;2023-10-09T02:09:55;98878.70;;;4.38;78.72
62057;BME280;48016;50.284;18.860;2023-10-09T02:12:22;98863.27;;;4.43;78.58
62057;BME280;48016;50.284;18.860;2023-10-09T02:14:50;98860.21;;;4.45;78.42
62057;BME280;48016;50.284;18.860;2023-10-09T02:17:20;98866.70;;;4.48;78.59
62057;BME280;48016;50.284;18.860;2023-10-09T02:19:46;98864.11;;;4.50;78.69
62057;BME280;48016;50.284;18.860;2023-10-09T02:22:15;98861.73;;;4.53;78.86
62057;BME280;48016;50.284;18.860;2023-10-09T02:24:43;98860.91;;;4.55;78.94
62057;BME280;48016;50.284;18.860;2023-10-09T02:27:17;98868.01;;;4.57;79.13
62057;BME280;48016;50.284;18.860;2023-10-09T02:30:03;98875.64;;;4.64;79.47
62057;BME280;48016;50.284;18.860;2023-10-09T02:32:42;98872.15;;;4.70;79.04
62057;BME280;48016;50.284;18.860;2023-10-09T02:35:11;98871.55;;;4.72;79.02
62057;BME280;48016;50.284;18.860;2023-10-09T02:37:57;98868.40;;;4.71;79.25
62057;BME280;48016;50.284;18.860;2023-10-09T02:40:28;98863.91;;;4.73;79.46
62057;BME280;48016;50.284;18.860;2023-10-09T02:42:58;98860.99;;;4.75;79.20
62057;BME280;48016;50.284;18.860;2023-10-09T02:45:25;98870.23;;;4.76;79.41
62057;BME280;48016;50.284;18.860;2023-10-09T02:47:55;98881.81;;;4.78;79.45
62057;BME280;48016;50.284;18.860;2023-10-09T02:50:21;98878.71;;;4.78;79.37
62057;BME280;48016;50.284;18.860;2023-10-09T02:52:49;98873.03;;;4.80;79.38
62057;BME280;48016;50.284;18.860;2023-10-09T02:55:19;98876.34;;;4.80;79.35
62057;BME280;48016;50.284;18.860;2023-10-09T02:57:55;98879.55;;;4.82;79.51
62057;BME280;48016;50.284;18.860;2023-10-09T03:00:47;98874.48;;;4.82;79.79
62057;BME280;48016;50.284;18.860;2023-10-09T03:03:14;98869.70;;;4.82;79.65
62057;BME280;48016;50.284;18.860;2023-10-09T03:05:43;98848.36;;;4.82;79.68
62057;BME280;48016;50.284;18.860;2023-10-09T03:08:10;98841.23;;;4.82;79.73
62057;BME280;48016;50.284;18.860;2023-10-09T03:10:38;98847.65;;;4.82;79.53
62057;BME280;48016;50.284;18.860;2023-10-09T03:13:08;98835.95;;;4.86;79.38
62057;BME280;48016;50.284;18.860;2023-10-09T03:15:34;98824.41;;;4.89;79.11
62057;BME280;48016;50.284;18.860;2023-10-09T03:18:02;98823.80;;;4.94;78.92
62057;BME280;48016;50.284;18.860;2023-10-09T03:20:31;98828.29;;;4.99;78.87
62057;BME280;48016;50.284;18.860;2023-10-09T03:22:57;98821.23;;;5.04;79.18
62057;BME280;48016;50.284;18.860;2023-10-09T03:25:24;98818.27;;;5.06;78.82
62057;BME280;48016;50.284;18.860;2023-10-09T03:27:53;98817.65;;;5.07;78.71
62057;BME280;48016;50.284;18.860;2023-10-09T03:30:22;98814.02;;;5.08;78.52
62057;BME280;48016;50.284;18.860;2023-10-09T03:32:49;98804.00;;;5.12;78.68
62057;BME280;48016;50.284;18.860;2023-10-09T03:35:20;98788.13;;;5.15;78.31
62057;BME280;48016;50.284;18.860;2023-10-09T03:37:54;98779.35;;;5.17;78.04
62057;BME280;48016;50.284;18.860;2023-10-09T03:40:26;98779.46;;;5.19;77.96
62057;BME280;48016;50.284;18.860;2023-10-09T03:42:53;98793.27;;;5.20;78.05
62057;BME280;48016;50.284;18.860;2023-10-09T03:45:20;98796.45;;;5.22;78.15
62057;BME280;48016;50.284;18.860;2023-10-09T03:47:54;98800.69;;;5.25;78.00
62057;BME280;48016;50.284;18.860;2023-10-09T03:50:42;98790.45;;;5.29;77.77
62057;BME280;48016;50.284;18.860;2023-10-09T03:53:09;98787.20;;;5.34;77.76
62057;BME280;48016;50.284;18.860;2023-10-09T03:55:39;98782.36;;;5.37;77.88
62057;BME280;48016;50.284;18.860;2023-10-09T03:58:09;98782.23;;;5.39;77.59
62057;BME280;48016;50.284;18.860;2023-10-09T04:00:38;98768.65;;;5.40;77.94
62057;BME280;48016;50.284;18.860;2023-10-09T04:03:11;98756.15;;;5.42;77.99
62057;BME280;48016;50.284;18.860;2023-10-09T04:05:41;98745.51;;;5.42;78.03
62057;BME280;48016;50.284;18.860;2023-10-09T04:08:09;98747.39;;;5.44;77.74
62057;BME280;48016;50.284;18.860;2023-10-09T04:11:02;98755.43;;;5.48;77.39
62057;BME280;48016;50.284;18.860;2023-10-09T04:13:32;98765.54;;;5.51;77.34
62057;BME280;48016;50.284;18.860;2023-10-09T04:16:00;98771.27;;;5.55;77.38
62057;BME280;48016;50.284;18.860;2023-10-09T04:18:35;98775.83;;;5.59;77.43
62057;BME280;48016;50.284;18.860;2023-10-09T04:21:05;98767.85;;;5.61;77.53
62057;BME280;48016;50.284;18.860;2023-10-09T04:23:56;98757.58;;;5.61;77.84
62057;BME280;48016;50.284;18.860;2023-10-09T04:26:26;98754.70;;;5.62;77.83
62057;BME280;48016;50.284;18.860;2023-10-09T04:28:52;98750.98;;;5.62;77.74
62057;BME280;48016;50.284;18.860;2023-10-09T04:31:20;98740.69;;;5.63;77.81
62057;BME280;48016;50.284;18.860;2023-10-09T04:33:48;98725.63;;;5.65;77.79
62057;BME280;48016;50.284;18.860;2023-10-09T04:36:40;98715.59;;;5.68;77.80
62057;BME280;48016;50.284;18.860;2023-10-09T04:39:12;98709.14;;;5.71;77.51
62057;BME280;48016;50.284;18.860;2023-10-09T04:41:39;98706.48;;;5.74;77.61
62057;BME280;48016;50.284;18.860;2023-10-09T04:44:08;98708.44;;;5.78;77.46
62057;BME280;48016;50.284;18.860;2023-10-09T04:46:47;98703.17;;;5.82;77.59
62057;BME280;48016;50.284;18.860;2023-10-09T04:49:40;98699.23;;;5.86;77.86
62057;BME280;48016;50.284;18.860;2023-10-09T04:52:28;98696.09;;;5.88;77.86
62057;BME280;48016;50.284;18.860;2023-10-09T04:54:54;98698.42;;;5.91;77.83
62057;BME280;48016;50.284;18.860;2023-10-09T05:03:02;98690.02;;;6.04;77.23
62057;BME280;48016;50.284;18.860;2023-10-09T05:05:34;98691.07;;;6.04;77.11
62057;BME280;48016;50.284;18.860;2023-10-09T05:08:03;98683.73;;;6.06;77.20
62057;BME280;48016;50.284;18.860;2023-10-09T05:10:51;98673.42;;;6.09;77.28
62057;BME280;48016;50.284;18.860;2023-10-09T05:13:40;98667.11;;;6.05;77.22
62057;BME280;48016;50.284;18.860;2023-10-09T05:16:07;98664.20;;;6.03;77.06
62057;BME280;48016;50.284;18.860;2023-10-09T05:18:39;98662.77;;;6.02;77.49
62057;BME280;48016;50.284;18.860;2023-10-09T05:21:06;98653.34;;;6.01;77.65
62057;BME280;48016;50.284;18.860;2023-10-09T05:23:35;98649.11;;;5.99;77.42
62057;BME280;48016;50.284;18.860;2023-10-09T05:26:10;98653.56;;;5.98;77.56
62057;BME280;48016;50.284;18.860;2023-10-09T05:28:57;98649.87;;;5.97;77.38
62057;BME280;48016;50.284;18.860;2023-10-09T05:31:24;98634.93;;;5.96;77.30
62057;BME280;48016;50.284;18.860;2023-10-09T05:34:09;98631.51;;;5.95;78.08
62057;BME280;48016;50.284;18.860;2023-10-09T05:36:38;98635.77;;;5.94;77.74
62057;BME280;48016;50.284;18.860;2023-10-09T05:39:05;98631.27;;;5.94;77.58
62057;BME280;48016;50.284;18.860;2023-10-09T05:41:48;98630.63;;;5.96;77.84
62057;BME280;48016;50.284;18.860;2023-10-09T05:44:17;98628.36;;;5.97;78.04
62057;BME280;48016;50.284;18.860;2023-10-09T05:47:03;98628.83;;;6.00;78.10
62057;BME280;48016;50.284;18.860;2023-10-09T05:50:02;98633.30;;;6.04;77.86
62057;BME280;48016;50.284;18.860;2023-10-09T05:52:34;98639.77;;;6.07;78.26
62057;BME280;48016;50.284;18.860;2023-10-09T05:55:04;98647.84;;;6.10;78.11
62057;BME280;48016;50.284;18.860;2023-10-09T05:57:36;98654.73;;;6.12;77.93
62057;BME280;48016;50.284;18.860;2023-10-09T06:00:21;98657.73;;;6.17;78.09
62057;BME280;48016;50.284;18.860;2023-10-09T06:03:06;98666.17;;;6.22;78.05
62057;BME280;48016;50.284;18.860;2023-10-09T06:05:45;98671.63;;;6.26;78.04
62057;BME280;48016;50.284;18.860;2023-10-09T06:08:29;98670.67;;;6.31;77.98
62057;BME280;48016;50.284;18.860;2023-10-09T06:11:18;98674.34;;;6.33;77.69
62057;BME280;48016;50.284;18.860;2023-10-09T06:14:00;98676.42;;;6.38;77.69
62057;BME280;48016;50.284;18.860;2023-10-09T06:16:36;98682.63;;;6.41;77.62
62057;BME280;48016;50.284;18.860;2023-10-09T06:19:06;98683.61;;;6.44;77.66
62057;BME280;48016;50.284;18.860;2023-10-09T06:21:38;98684.08;;;6.47;77.67
62057;BME280;48016;50.284;18.860;2023-10-09T06:24:06;98684.38;;;6.50;77.63
62057;BME280;48016;50.284;18.860;2023-10-09T06:26:41;98687.40;;;6.51;77.54
62057;BME280;48016;50.284;18.860;2023-10-09T06:29:18;98697.58;;;6.50;77.40
62057;BME280;48016;50.284;18.860;2023-10-09T06:32:07;98698.48;;;6.49;77.47
62057;BME280;48016;50.284;18.860;2023-10-09T06:35:01;98702.86;;;6.50;77.40
62057;BME280;48016;50.284;18.860;2023-10-09T06:37:45;98703.41;;;6.48;77.43
62057;BME280;48016;50.284;18.860;2023-10-09T06:43:03;98694.38;;;6.50;77.39
62057;BME280;48016;50.284;18.860;2023-10-09T06:48:21;98677.02;;;6.46;77.41
62057;BME280;48016;50.284;18.860;2023-10-09T06:51:10;98671.34;;;6.43;77.50
62057;BME280;48016;50.284;18.860;2023-10-09T06:53:55;98665.89;;;6.43;78.00
62057;BME280;48016;50.284;18.860;2023-10-09T06:56:26;98664.84;;;6.40;78.24
62057;BME280;48016;50.284;18.860;2023-10-09T06:58:56;98665.27;;;6.40;78.12
62057;BME280;48016;50.284;18.860;2023-10-09T07:01:24;98665.60;;;6.39;78.15
62057;BME280;48016;50.284;18.860;2023-10-09T07:03:54;98666.10;;;6.38;78.58
62057;BME280;48016;50.284;18.860;2023-10-09T07:06:20;98661.77;;;6.38;78.82
62057;BME280;48016;50.284;18.860;2023-10-09T07:08:50;98661.54;;;6.40;78.88
62057;BME280;48016;50.284;18.860;2023-10-09T07:11:33;98665.87;;;6.39;78.92
62057;BME280;48016;50.284;18.860;2023-10-09T07:14:12;98663.23;;;6.39;78.60
62057;BME280;48016;50.284;18.860;2023-10-09T07:17:02;98663.74;;;6.38;78.29
62057;BME280;48016;50.284;18.860;2023-10-09T07:19:42;98658.00;;;6.37;78.53
62057;BME280;48016;50.284;18.860;2023-10-09T07:22:09;98654.38;;;6.36;78.73
62057;BME280;48016;50.284;18.860;2023-10-09T07:24:44;98640.42;;;6.34;78.79
62057;BME280;48016;50.284;18.860;2023-10-09T07:27:22;98630.34;;;6.35;78.84
62057;BME280;48016;50.284;18.860;2023-10-09T07:30:07;98632.20;;;6.34;79.19
62057;BME280;48016;50.284;18.860;2023-10-09T07:33:01;98629.61;;;6.33;79.43
62057;BME280;48016;50.284;18.860;2023-10-09T07:35:44;98625.21;;;6.36;79.37
62057;BME280;48016;50.284;18.860;2023-10-09T07:38:20;98621.71;;;6.40;79.50
62057;BME280;48016;50.284;18.860;2023-10-09T07:40:55;98621.98;;;6.46;79.56
62057;BME280;48016;50.284;18.860;2023-10-09T07:43:23;98628.65;;;6.49;79.26
62057;BME280;48016;50.284;18.860;2023-10-09T07:45:55;98632.39;;;6.55;79.50
62057;BME280;48016;50.284;18.860;2023-10-09T07:48:24;98638.33;;;6.61;79.80
62057;BME280;48016;50.284;18.860;2023-10-09T07:51:14;98635.64;;;6.63;80.05
62057;BME280;48016;50.284;18.860;2023-10-09T07:53:41;98637.00;;;6.67;79.83
62057;BME280;48016;50.284;18.860;2023-10-09T07:56:13;98636.22;;;6.71;79.76
62057;BME280;48016;50.284;18.860;2023-10-09T07:58:47;98632.08;;;6.75;79.68
62057;BME280;48016;50.284;18.860;2023-10-09T08:01:13;98621.10;;;6.77;79.69
62057;BME280;48016;50.284;18.860;2023-10-09T08:03:49;98619.62;;;6.76;79.25
62057;BME280;48016;50.284;18.860;2023-10-09T08:06:28;98616.77;;;6.76;79.39
62057;BME280;48016;50.284;18.860;2023-10-09T08:09:08;98603.70;;;6.78;79.48
62057;BME280;48016;50.284;18.860;2023-10-09T08:11:41;98595.34;;;6.81;79.57
62057;BME280;48016;50.284;18.860;2023-10-09T08:14:11;98582.85;;;6.86;79.78
62057;BME280;48016;50.284;18.860;2023-10-09T08:16:56;98569.23;;;6.94;79.95
62057;BME280;48016;50.284;18.860;2023-10-09T08:19:42;98560.27;;;7.04;79.82
62057;BME280;48016;50.284;18.860;2023-10-09T08:22:21;98550.35;;;7.11;79.49
62057;BME280;48016;50.284;18.860;2023-10-09T08:24:51;98537.90;;;7.13;79.08
62057;BME280;48016;50.284;18.860;2023-10-09T08:27:24;98517.06;;;7.21;79.28
62057;BME280;48016;50.284;18.860;2023-10-09T08:29:57;98502.29;;;7.31;79.57
62057;BME280;48016;50.284;18.860;2023-10-09T08:32:46;98495.95;;;7.52;79.31
62057;BME280;48016;50.284;18.860;2023-10-09T08:35:51;98490.12;;;7.78;79.32
62057;BME280;48016;50.284;18.860;2023-10-09T08:38:21;98478.30;;;7.93;79.05
62057;BME280;48016;50.284;18.860;2023-10-09T08:40:51;98473.47;;;8.02;79.69
62057;BME280;48016;50.284;18.860;2023-10-09T08:43:21;98473.63;;;8.07;78.69
62057;BME280;48016;50.284;18.860;2023-10-09T08:45:49;98469.16;;;8.04;78.57
62057;BME280;48016;50.284;18.860;2023-10-09T08:48:18;98460.14;;;7.94;78.04
62057;BME280;48016;50.284;18.860;2023-10-09T08:50:45;98453.23;;;7.84;78.35
62057;BME280;48016;50.284;18.860;2023-10-09T08:53:12;98443.50;;;7.80;78.36
62057;BME280;48016;50.284;18.860;2023-10-09T08:55:39;98438.54;;;7.75;78.25
62057;BME280;48016;50.284;18.860;2023-10-09T08:58:07;98441.90;;;7.67;78.44
62057;BME280;48016;50.284;18.860;2023-10-09T09:00:44;98451.02;;;7.61;78.44
62057;BME280;48016;50.284;18.860;2023-10-09T09:03:15;98447.09;;;7.55;78.78
62057;BME280;48016;50.284;18.860;2023-10-09T09:05:46;98447.70;;;7.53;79.00
62057;BME280;48016;50.284;18.860;2023-10-09T09:08:24;98450.84;;;7.52;78.90
62057;BME280;48016;50.284;18.860;2023-10-09T09:13:26;98448.62;;;7.45;79.07
62057;BME280;48016;50.284;18.860;2023-10-09T09:15:58;98442.65;;;7.45;79.28
62057;BME280;48016;50.284;18.860;2023-10-09T09:18:24;98437.85;;;7.43;79.06
62057;BME280;48016;50.284;18.860;2023-10-09T09:20:57;98437.55;;;7.41;78.70
62057;BME280;48016;50.284;18.860;2023-10-09T09:23:24;98438.44;;;7.38;78.72
62057;BME280;48016;50.284;18.860;2023-10-09T09:25:52;98433.48;;;7.37;78.64
62057;BME280;48016;50.284;18.860;2023-10-09T09:28:25;98425.27;;;7.43;78.84
62057;BME280;48016;50.284;18.860;2023-10-09T09:30:53;98426.66;;;7.49;79.17
62057;BME280;48016;50.284;18.860;2023-10-09T09:33:24;98431.05;;;7.54;79.71
62057;BME280;48016;50.284;18.860;2023-10-09T09:35:57;98421.65;;;7.55;79.33
62057;BME280;48016;50.284;18.860;2023-10-09T09:38:28;98415.91;;;7.51;79.23
62057;BME280;48016;50.284;18.860;2023-10-09T09:40:56;98416.42;;;7.50;79.82
62057;BME280;48016;50.284;18.860;2023-10-09T09:43:23;98410.36;;;7.51;79.54
62057;BME280;48016;50.284;18.860;2023-10-09T09:45:51;98414.08;;;7.54;79.49
62057;BME280;48016;50.284;18.860;2023-10-09T09:48:19;98411.87;;;7.53;79.83
62057;BME280;48016;50.284;18.860;2023-10-09T09:50:45;98415.88;;;7.45;79.81
62057;BME280;48016;50.284;18.860;2023-10-09T09:53:13;98412.39;;;7.33;79.82
62057;BME280;48016;50.284;18.860;2023-10-09T09:55:52;98411.63;;;7.30;80.20
62057;BME280;48016;50.284;18.860;2023-10-09T09:58:25;98402.61;;;7.31;80.17
62057;BME280;48016;50.284;18.860;2023-10-09T10:01:00;98403.88;;;7.30;80.00
62057;BME280;48016;50.284;18.860;2023-10-09T10:03:30;98410.55;;;7.30;80.27
62057;BME280;48016;50.284;18.860;2023-10-09T10:05:59;98419.16;;;7.26;80.35
62057;BME280;48016;50.284;18.860;2023-10-09T10:08:31;98425.61;;;7.26;80.64
62057;BME280;48016;50.284;18.860;2023-10-09T10:10:59;98419.95;;;7.28;80.64
62057;BME280;48016;50.284;18.860;2023-10-09T10:18:58;98413.96;;;7.36;80.51
62057;BME280;48016;50.284;18.860;2023-10-09T10:21:48;98412.62;;;7.35;80.69
62057;BME280;48016;50.284;18.860;2023-10-09T10:29:36;98410.63;;;7.32;80.50
62057;BME280;48016;50.284;18.860;2023-10-09T10:32:04;98413.98;;;7.32;80.58
62057;BME280;48016;50.284;18.860;2023-10-09T10:37:38;98388.54;;;7.32;80.26
62057;BME280;48016;50.284;18.860;2023-10-09T10:40:23;98383.13;;;7.31;80.59
62057;BME280;48016;50.284;18.860;2023-10-09T10:43:04;98379.36;;;7.31;80.75
62057;BME280;48016;50.284;18.860;2023-10-09T10:46:00;98375.95;;;7.30;80.88
62057;BME280;48016;50.284;18.860;2023-10-09T10:48:26;98367.23;;;7.21;80.33
62057;BME280;48016;50.284;18.860;2023-10-09T10:51:04;98368.33;;;7.15;80.42
62057;BME280;48016;50.284;18.860;2023-10-09T10:53:31;98367.12;;;7.16;80.95
62057;BME280;48016;50.284;18.860;2023-10-09T10:56:18;98353.34;;;7.18;80.93
62057;BME280;48016;50.284;18.860;2023-10-09T10:58:52;98332.56;;;7.19;80.62
62057;BME280;48016;50.284;18.860;2023-10-09T11:01:30;98325.39;;;7.15;80.95
62057;BME280;48016;50.284;18.860;2023-10-09T11:04:16;98323.95;;;7.14;81.21
62057;BME280;48016;50.284;18.860;2023-10-09T11:06:51;98328.58;;;7.12;81.38
62057;BME280;48016;50.284;18.860;2023-10-09T11:09:17;98320.40;;;7.09;80.91
62057;BME280;48016;50.284;18.860;2023-10-09T11:12:04;98311.38;;;7.04;80.98
62057;BME280;48016;50.284;18.860;2023-10-09T11:14:45;98304.11;;;6.98;80.90
62057;BME280;48016;50.284;18.860;2023-10-09T11:17:16;98289.66;;;6.97;80.92
62057;BME280;48016;50.284;18.860;2023-10-09T11:19:51;98291.34;;;6.95;80.68
62057;BME280;48016;50.284;18.860;2023-10-09T11:22:19;98288.06;;;6.95;80.75
62057;BME280;48016;50.284;18.860;2023-10-09T11:24:54;98296.54;;;6.90;81.12
62057;BME280;48016;50.284;18.860;2023-10-09T11:27:47;98296.42;;;6.86;80.98
62057;BME280;48016;50.284;18.860;2023-10-09T11:30:16;98297.36;;;6.78;81.51
62057;BME280;48016;50.284;18.860;2023-10-09T11:33:05;98299.81;;;6.74;81.77
62057;BME280;48016;50.284;18.860;2023-10-09T11:35:31;98299.12;;;6.71;81.99
62057;BME280;48016;50.284;18.860;2023-10-09T11:38:00;98290.38;;;6.69;81.99
62057;BME280;48016;50.284;18.860;2023-10-09T11:40:47;98296.98;;;6.67;82.27
62057;BME280;48016;50.284;18.860;2023-10-09T11:43:19;98296.30;;;6.69;82.17
62057;BME280;48016;50.284;18.860;2023-10-09T11:46:09;98293.96;;;6.75;81.82
62057;BME280;48016;50.284;18.860;2023-10-09T11:51:51;98280.65;;;6.83;81.69
62057;BME280;48016;50.284;18.860;2023-10-09T11:54:40;98277.85;;;6.86;81.96
62057;BME280;48016;50.284;18.860;2023-10-09T11:57:10;98270.75;;;6.85;81.82
62057;BME280;48016;50.284;18.860;2023-10-09T11:59:36;98272.76;;;6.83;81.82
62057;BME280;48016;50.284;18.860;2023-10-09T12:02:09;98275.05;;;6.85;82.13
62057;BME280;48016;50.284;18.860;2023-10-09T12:04:41;98277.66;;;6.85;82.29
62057;BME280;48016;50.284;18.860;2023-10-09T12:07:10;98275.62;;;6.85;82.23
62057;BME280;48016;50.284;18.860;2023-10-09T12:09:37;98272.39;;;6.87;82.27
62057;BME280;48016;50.284;18.860;2023-10-09T12:12:06;98271.89;;;6.87;82.61
62057;BME280;48016;50.284;18.860;2023-10-09T12:14:33;98279.06;;;6.88;82.53
62057;BME280;48016;50.284;18.860;2023-10-09T12:17:00;98281.48;;;6.92;82.18
62057;BME280;48016;50.284;18.860;2023-10-09T12:19:32;98277.96;;;6.94;82.11
62057;BME280;48016;50.284;18.860;2023-10-09T12:22:00;98279.84;;;6.91;82.03
62057;BME280;48016;50.284;18.860;2023-10-09T12:24:27;98279.85;;;6.91;82.42
62057;BME280;48016;50.284;18.860;2023-10-09T12:26:55;98284.41;;;6.94;82.04
62057;BME280;48016;50.284;18.860;2023-10-09T12:29:22;98277.90;;;6.93;81.85
62057;BME280;48016;50.284;18.860;2023-10-09T12:31:50;98273.29;;;6.91;82.02
62057;BME280;48016;50.284;18.860;2023-10-09T12:34:27;98275.25;;;6.90;82.13
62057;BME280;48016;50.284;18.860;2023-10-09T12:36:54;98279.48;;;6.92;82.47
62057;BME280;48016;50.284;18.860;2023-10-09T12:39:23;98272.29;;;6.94;82.06
62057;BME280;48016;50.284;18.860;2023-10-09T12:41:50;98269.06;;;6.94;81.93
62057;BME280;48016;50.284;18.860;2023-10-09T12:44:19;98265.27;;;6.96;82.14
62057;BME280;48016;50.284;18.860;2023-10-09T12:46:46;98266.75;;;6.97;82.14
62057;BME280;48016;50.284;18.860;2023-10-09T12:49:19;98274.22;;;7.01;82.52
62057;BME280;48016;50.284;18.860;2023-10-09T12:51:45;98274.05;;;7.05;82.39
62057;BME280;48016;50.284;18.860;2023-10-09T12:54:12;98267.98;;;7.10;82.21
62057;BME280;48016;50.284;18.860;2023-10-09T12:56:41;98268.82;;;7.14;82.14
62057;BME280;48016;50.284;18.860;2023-10-09T12:59:07;98265.27;;;7.18;82.56
62057;BME280;48016;50.284;18.860;2023-10-09T13:01:38;98258.71;;;7.22;82.61
62057;BME280;48016;50.284;18.860;2023-10-09T13:04:12;98261.39;;;7.27;82.81
62057;BME280;48016;50.284;18.860;2023-10-09T13:06:41;98257.27;;;7.31;82.60
62057;BME280;48016;50.284;18.860;2023-10-09T13:09:11;98254.98;;;7.32;82.53
62057;BME280;48016;50.284;18.860;2023-10-09T13:11:40;98252.92;;;7.34;82.50
62057;BME280;48016;50.284;18.860;2023-10-09T13:14:09;98243.83;;;7.35;82.56
62057;BME280;48016;50.284;18.860;2023-10-09T13:16:48;98240.23;;;7.37;82.70
62057;BME280;48016;50.284;18.860;2023-10-09T13:19:16;98232.33;;;7.36;82.47
62057;BME280;48016;50.284;18.860;2023-10-09T13:21:43;98223.39;;;7.35;82.72
62057;BME280;48016;50.284;18.860;2023-10-09T13:24:10;98220.56;;;7.37;82.80
62057;BME280;48016;50.284;18.860;2023-10-09T13:26:42;98218.19;;;7.39;82.77
62057;BME280;48016;50.284;18.860;2023-10-09T13:29:13;98218.16;;;7.40;82.81
62057;BME280;48016;50.284;18.860;2023-10-09T13:31:40;98221.77;;;7.46;83.00
62057;BME280;48016;50.284;18.860;2023-10-09T13:34:12;98221.36;;;7.51;82.76
62057;BME280;48016;50.284;18.860;2023-10-09T13:36:41;98215.79;;;7.52;82.66
62057;BME280;48016;50.284;18.860;2023-10-09T13:39:20;98207.91;;;7.50;82.57
62057;BME280;48016;50.284;18.860;2023-10-09T13:41:47;98205.58;;;7.53;82.52
62057;BME280;48016;50.284;18.860;2023-10-09T13:44:14;98206.77;;;7.56;82.50
62057;BME280;48016;50.284;18.860;2023-10-09T13:46:41;98210.83;;;7.60;82.57
62057;BME280;48016;50.284;18.860;2023-10-09T13:49:08;98211.09;;;7.62;82.51
62057;BME280;48016;50.284;18.860;2023-10-09T13:51:38;98216.05;;;7.67;82.89
62057;BME280;48016;50.284;18.860;2023-10-09T13:54:13;98221.27;;;7.71;82.63
62057;BME280;48016;50.284;18.860;2023-10-09T13:56:55;98219.17;;;7.71;82.53
62057;BME280;48016;50.284;18.860;2023-10-09T13:59:21;98220.23;;;7.67;82.60
62057;BME280;48016;50.284;18.860;2023-10-09T14:01:52;98222.65;;;7.67;82.84